Time;durP1;ratioP1;P1;durP2;ratioP2;P2;SDS_P1;SDS_P2;PMS_P1;PMS_P2;Temp;Humidity;BMP_temperature;BMP_pressure;BME280_temperature;BME280_humidity;BME280_pressure;Samples;Min_cycle;Max_cycle;Signal;HPM_P1;HPM_P2
2024/03/18 00:00:33;;;;;;;11.50;7.50;;;;;;;-147.86;100.00;-4691.09;105859;1254;72531;-45
2024/03/18 00:03:00;;;;;;;10.70;7.30;;;;;;;-147.86;100.00;-4267.92;105854;1253;61827;-47
2024/03/18 00:05:27;;;;;;;9.70;6.70;;;;;;;-147.86;100.00;-3863.66;105861;1254;61352;-45
2024/03/18 00:07:54;;;;;;;11.90;6.60;;;;;;;-147.86;100.00;-3497.67;105917;1254;74655;-48
2024/03/18 00:10:21;;;;;;;11.40;6.90;;;;;;;-147.86;100.00;-3186.97;105914;1257;65410;-45
2024/03/18 00:12:48;;;;;;;9.00;6.40;;;;;;;-147.86;100.00;-2903.72;105872;1254;72760;-45
2024/03/18 00:15:15;;;;;;;9.70;6.90;;;;;;;-147.86;100.00;-2556.98;105919;1254;61660;-45
2024/03/18 00:17:43;;;;;;;10.70;7.00;;;;;;;-147.86;100.00;-2227.63;105891;1254;61333;-46
2024/03/18 00:20:13;;;;;;;11.30;6.50;;;;;;;-147.86;100.00;-1968.69;105910;1256;74399;-45
2024/03/18 00:22:41;;;;;;;10.40;7.00;;;;;;;-147.86;100.00;-1710.12;105898;1253;65362;-47
2024/03/18 00:25:11;;;;;;;9.30;7.00;;;;;;;-147.86;100.00;-1332.70;105892;1254;72366;-47
2024/03/18 00:27:38;;;;;;;12.50;6.80;;;;;;;-147.86;100.00;-1076.02;105932;1253;61935;-46
2024/03/18 00:30:07;;;;;;;9.80;6.90;;;;;;;-147.86;100.00;-788.36;105924;1254;61349;-45
2024/03/18 00:32:34;;;;;;;9.40;6.80;;;;;;;-147.86;100.00;-569.99;105952;1254;74980;-46
2024/03/18 00:35:01;;;;;;;8.60;6.30;;;;;;;-147.86;100.00;-364.00;105909;1254;63285;-45
2024/03/18 00:37:28;;;;;;;10.80;6.40;;;;;;;-147.86;100.00;-132.81;105869;1254;72449;-45
2024/03/18 00:39:55;;;;;;;9.30;6.40;;;;;;;-147.86;100.00;114.64;105890;1254;61897;-46
2024/03/18 00:42:21;;;;;;;8.10;6.40;;;;;;;-147.86;100.00;295.11;105882;1254;61201;-46
2024/03/18 00:44:48;;;;;;;10.30;6.70;;;;;;;-147.86;100.00;432.99;105868;1254;74519;-45
2024/03/18 00:47:15;;;;;;;11.60;6.40;;;;;;;-147.86;100.00;446.55;105906;1256;64720;-46
2024/03/18 00:49:43;;;;;;;6.70;6.00;;;;;;;-147.86;100.00;503.48;105889;1254;71524;-45
2024/03/18 00:52:10;;;;;;;8.80;6.70;;;;;;;-147.86;100.00;504.25;105930;1256;61286;-46
2024/03/18 00:54:37;;;;;;;7.40;5.90;;;;;;;-147.86;100.00;495.34;105863;1252;61269;-45
2024/03/18 00:57:04;;;;;;;8.70;6.50;;;;;;;-147.86;100.00;501.55;105858;1254;74460;-45
2024/03/18 00:59:31;;;;;;;11.20;5.50;;;;;;;-147.86;100.00;553.05;105840;1254;64453;-45
2024/03/18 01:01:59;;;;;;;6.60;5.50;;;;;;;-147.86;100.00;499.99;105941;1254;72493;-45
2024/03/18 01:04:25;;;;;;;7.60;6.00;;;;;;;-147.86;100.00;474.04;105959;1256;61232;-46
2024/03/18 01:06:52;;;;;;;7.40;6.10;;;;;;;-147.86;100.00;476.37;105890;1254;61234;-47
2024/03/18 01:09:19;;;;;;;5.30;4.80;;;;;;;-147.86;100.00;411.30;105902;1254;73881;-45
2024/03/18 01:11:47;;;;;;;7.10;5.60;;;;;;;-147.86;100.00;299.76;105912;1254;65203;-45
2024/03/18 01:14:14;;;;;;;6.80;6.10;;;;;;;-147.86;100.00;134.78;105917;1254;72599;-47
2024/03/18 01:16:42;;;;;;;5.80;5.30;;;;;;;-147.86;100.00;-45.30;105949;1253;61154;-46
2024/03/18 01:19:08;;;;;;;7.00;5.50;;;;;;;-147.86;100.00;-156.82;105885;1254;61243;-45
2024/03/18 01:21:35;;;;;;;6.50;5.40;;;;;;;-147.86;100.00;-219.94;105922;1256;74492;-45
2024/03/18 01:24:03;;;;;;;6.70;5.20;;;;;;;-147.86;100.00;-222.65;105862;1256;65480;-46
2024/03/18 01:26:30;;;;;;;7.50;5.70;;;;;;;-147.86;100.00;-226.13;105928;1254;72678;-45
2024/03/18 01:28:57;;;;;;;7.40;5.40;;;;;;;-147.86;100.00;-132.42;105867;1256;61125;-46
2024/03/18 01:31:23;;;;;;;6.00;5.00;;;;;;;-147.86;100.00;20.93;105893;1253;61243;-45
2024/03/18 01:33:51;;;;;;;5.90;5.20;;;;;;;-147.86;100.00;204.12;105833;1256;74584;-46
2024/03/18 01:36:17;;;;;;;5.90;5.00;;;;;;;-147.86;100.00;509.31;105822;1254;65324;-44
2024/03/18 01:38:44;;;;;;;6.00;5.40;;;;;;;-147.86;100.00;840.86;105861;1256;72570;-44
2024/03/18 01:41:11;;;;;;;5.30;4.80;;;;;;;-147.86;100.00;1142.22;105989;1253;61786;-45
2024/03/18 01:43:39;;;;;;;6.60;5.30;;;;;;;-147.86;100.00;1420.75;105922;1253;61257;-45
2024/03/18 01:46:16;;;;;;;5.60;5.00;;;;;;;-147.86;100.00;1665.99;105828;1256;74465;-44
2024/03/18 01:48:44;;;;;;;6.90;5.20;;;;;;;-147.86;100.00;1855.49;105930;1256;65362;-47
2024/03/18 01:51:11;;;;;;;5.20;4.70;;;;;;;-147.86;100.00;2433.17;105889;1256;72454;-44
2024/03/18 01:53:38;;;;;;;7.00;5.20;;;;;;;-147.86;100.00;2916.03;105572;1253;394880;-44
2024/03/18 01:59:32;;;;;;;7.80;5.10;;;;;;;-147.86;100.00;14954.53;102565;1295;602389;-47
2024/03/18 02:02:00;;;;;;;11.20;5.40;;;;;;;-147.86;100.00;-7576.67;105186;1269;60097;-47
2024/03/18 02:04:28;;;;;;;6.10;5.20;;;;;;;-147.86;100.00;-4872.35;105254;1261;60077;-49
2024/03/18 02:06:55;;;;;;;6.40;4.80;;;;;;;-147.86;100.00;-2764.69;105230;1260;73001;-46
2024/03/18 02:09:25;;;;;;;5.10;4.60;;;;;;;-147.86;100.00;-1059.29;105266;1260;65218;-49
2024/03/18 02:11:51;;;;;;;8.00;4.70;;;;;;;-147.86;100.00;267.71;104979;1261;396161;-46
2024/03/18 02:14:18;;;;;;;6.20;4.80;;;;;;;-147.86;100.00;1446.36;105625;1263;60149;-46
2024/03/18 02:16:46;;;;;;;5.20;4.60;;;;;;;-147.86;100.00;2332.46;105644;1261;60038;-49
2024/03/18 02:19:13;;;;;;;6.10;4.70;;;;;;;-147.86;100.00;3111.77;105552;1261;72980;-47
2024/03/18 02:21:41;;;;;;;5.20;4.30;;;;;;;-147.86;100.00;3743.19;105572;1260;65607;-45
2024/03/18 02:24:08;;;;;;;5.10;4.60;;;;;;;-147.86;100.00;4336.68;105580;1258;71503;-46
2024/03/18 02:26:35;;;;;;;5.10;4.60;;;;;;;-147.86;100.00;4733.31;105601;1263;60338;-45
2024/03/18 02:29:02;;;;;;;5.10;4.50;;;;;;;-147.86;100.00;5007.44;105726;1254;60444;-47
2024/03/18 02:31:29;;;;;;;5.80;5.20;;;;;;;-147.86;100.00;5216.45;105709;1254;74302;-45
2024/03/18 02:33:56;;;;;;;7.20;4.60;;;;;;;-147.86;100.00;5337.83;105690;1258;65432;-45
2024/03/18 02:36:23;;;;;;;8.10;5.50;;;;;;;-147.86;100.00;5401.81;105652;1254;72617;-46
2024/03/18 02:38:52;;;;;;;8.90;4.90;;;;;;;-147.86;100.00;5327.35;105643;1255;62014;-46
2024/03/18 02:41:19;;;;;;;6.30;4.70;;;;;;;-147.86;100.00;5160.22;105693;1257;60536;-46
2024/03/18 02:43:46;;;;;;;5.40;4.80;;;;;;;-147.86;100.00;5129.58;105616;1259;74204;-45
2024/03/18 02:46:12;;;;;;;6.80;5.10;;;;;;;-147.86;100.00;5097.40;105631;1260;64501;-48
2024/03/18 02:48:39;;;;;;;6.00;4.80;;;;;;;-147.86;100.00;5115.24;105701;1259;71590;-45
2024/03/18 02:51:06;;;;;;;6.20;4.60;;;;;;;-147.86;100.00;5153.24;105629;1259;61056;-45
2024/03/18 02:53:33;;;;;;;7.30;4.90;;;;;;;-147.86;100.00;5170.69;105613;1256;60561;-46
2024/03/18 02:56:00;;;;;;;5.60;4.70;;;;;;;-147.86;100.00;5190.85;105623;1259;73723;-44
2024/03/18 02:58:27;;;;;;;7.70;4.90;;;;;;;-147.86;100.00;5305.64;105640;1259;65961;-46
2024/03/18 03:00:54;;;;;;;8.40;5.20;;;;;;;-147.86;100.00;5497.99;105619;1260;72958;-46
2024/03/18 03:03:21;;;;;;;6.00;5.10;;;;;;;-147.86;100.00;5694.23;105626;1259;61231;-45
2024/03/18 03:05:48;;;;;;;7.50;5.30;;;;;;;-147.86;100.00;5782.66;105697;1256;60447;-46
2024/03/18 03:08:16;;;;;;;5.40;4.80;;;;;;;-147.86;100.00;5930.81;105609;1259;73129;-45
2024/03/18 03:10:43;;;;;;;5.50;4.40;;;;;;;-147.86;100.00;5985.12;105636;1260;65342;-46
2024/03/18 03:13:10;;;;;;;6.70;5.10;;;;;;;-147.86;100.00;6173.23;105581;1260;72594;-45
2024/03/18 03:15:37;;;;;;;8.00;4.70;;;;;;;-147.86;100.00;6334.98;105610;1260;60367;-46
2024/03/18 03:18:04;;;;;;;6.90;4.90;;;;;;;-147.86;100.00;6512.64;105603;1260;60479;-45
2024/03/18 03:20:31;;;;;;;6.40;4.50;;;;;;;-147.86;100.00;6689.14;105568;1259;74165;-45
2024/03/18 03:22:58;;;;;;;7.10;5.20;;;;;;;-147.86;100.00;6840.44;105605;1260;65353;-48
2024/03/18 03:25:26;;;;;;;6.90;5.10;;;;;;;-147.86;100.00;6992.13;105665;1259;72470;-47
2024/03/18 03:27:57;;;;;;;7.60;5.30;;;;;;;-147.86;100.00;7235.40;105653;1260;60357;-46
2024/03/18 03:30:24;;;;;;;6.10;5.30;;;;;;;-147.86;100.00;7399.16;105674;1258;60408;-45
2024/03/18 03:32:51;;;;;;;6.80;5.50;;;;;;;-147.86;100.00;7822.46;105639;1255;73561;-46
2024/03/18 03:35:18;;;;;;;7.40;5.20;;;;;;;-147.86;100.00;8100.31;105662;1260;65487;-46
2024/03/18 03:37:45;;;;;;;5.60;4.70;;;;;;;-147.86;100.00;8361.88;105690;1260;72510;-45
2024/03/18 03:40:13;;;;;;;6.70;5.00;;;;;;;-147.86;100.00;8656.46;105592;1260;60367;-47
2024/03/18 03:42:40;;;;;;;5.20;4.70;;;;;;;-147.86;100.00;8915.36;105658;1258;60803;-44
2024/03/18 03:45:08;;;;;;;6.90;5.80;;;;;;;-147.86;100.00;9251.12;105631;1259;75010;-45
2024/03/18 03:47:35;;;;;;;6.70;5.30;;;;;;;-147.86;100.00;9595.08;105612;1260;65466;-46
2024/03/18 03:50:04;;;;;;;5.90;4.70;;;;;;;-147.86;100.00;10002.72;105609;1258;72454;-46
2024/03/18 03:52:31;;;;;;;6.10;4.80;;;;;;;-147.86;100.00;10231.05;105644;1260;60971;-47
2024/03/18 03:54:58;;;;;;;6.90;4.70;;;;;;;-147.86;100.00;10677.58;105648;1258;60626;-48
2024/03/18 03:57:24;;;;;;;4.90;4.40;;;;;;;-147.86;100.00;11132.74;105624;1260;73783;-43
2024/03/18 03:59:51;;;;;;;5.60;4.40;;;;;;;-147.86;100.00;11681.55;105633;1260;64570;-45
2024/03/18 04:02:18;;;;;;;5.40;4.70;;;;;;;-147.86;100.00;12179.95;105640;1260;72635;-45
2024/03/18 04:04:46;;;;;;;8.10;4.80;;;;;;;-147.86;100.00;12716.48;105582;1259;61795;-46
2024/03/18 04:07:15;;;;;;;8.00;4.50;;;;;;;-147.86;100.00;13225.49;105636;1260;60552;-45
2024/03/18 04:09:42;;;;;;;5.00;4.50;;;;;;;-147.86;100.00;13664.26;105392;1260;73889;-44
2024/03/18 04:12:09;;;;;;;5.90;4.70;;;;;;;-147.86;100.00;14277.55;105335;1260;65421;-44
2024/03/18 04:14:37;;;;;;;6.40;5.20;;;;;;;-147.86;100.00;14923.60;105394;1257;72615;-48
2024/03/18 04:17:10;;;;;;;8.20;5.30;;;;;;;-147.86;100.00;15457.02;105624;1259;60881;-48
2024/03/18 04:19:37;;;;;;;9.70;5.50;;;;;;;-147.86;100.00;15694.65;105659;1257;60495;-49
2024/03/18 04:22:04;;;;;;;10.90;6.60;;;;;;;-147.86;100.00;16376.67;105647;1260;73693;-45
2024/03/18 04:24:31;;;;;;;9.30;6.80;;;;;;;-147.86;100.00;17012.95;105589;1260;65311;-45
2024/03/18 04:26:58;;;;;;;8.40;6.60;;;;;;;-147.86;100.00;17592.17;105596;1257;72627;-44
2024/03/18 04:29:26;;;;;;;8.80;7.10;;;;;;;-147.86;100.00;18225.55;105635;1260;60849;-45
2024/03/18 04:31:53;;;;;;;7.90;6.50;;;;;;;-147.86;100.00;18961.39;105661;1257;60341;-45
2024/03/18 04:34:20;;;;;;;11.40;6.40;;;;;;;-147.86;100.00;19669.32;105607;1257;73793;-44
2024/03/18 04:36:48;;;;;;;7.90;6.80;;;;;;;-147.86;100.00;20289.82;105624;1260;65391;-45
2024/03/18 04:39:15;;;;;;;10.80;7.30;;;;;;;-147.86;100.00;20887.41;105607;1260;72628;-46
2024/03/18 04:41:42;;;;;;;9.60;7.00;;;;;;;-147.86;100.00;21355.05;105623;1260;60565;-46
2024/03/18 04:44:09;;;;;;;8.80;6.60;;;;;;;-147.86;100.00;21742.51;105610;1255;60449;-45
2024/03/18 04:46:36;;;;;;;10.40;7.20;;;;;;;-147.86;100.00;21989.43;105634;1260;73643;-44
2024/03/18 04:49:03;;;;;;;10.80;6.90;;;;;;;-147.86;100.00;22294.39;105657;1260;64344;-46
2024/03/18 04:51:31;;;;;;;9.00;7.30;;;;;;;-147.86;100.00;22447.07;105645;1260;72433;-45
2024/03/18 04:53:58;;;;;;;8.60;6.60;;;;;;;-147.86;100.00;22466.92;105597;1259;60412;-46
2024/03/18 04:56:25;;;;;;;10.50;7.40;;;;;;;-147.86;100.00;22348.51;105719;1258;60475;-46
2024/03/18 04:58:52;;;;;;;11.70;7.70;;;;;;;-147.86;100.00;22011.98;105653;1260;73820;-45
2024/03/18 05:01:19;;;;;;;10.30;7.60;;;;;;;-147.86;100.00;21466.77;105624;1258;65350;-45
2024/03/18 05:03:46;;;;;;;14.70;7.60;;;;;;;-147.86;100.00;20693.86;105645;1260;72501;-45
2024/03/18 05:06:17;;;;;;;8.90;7.00;;;;;;;-147.86;100.00;19584.46;105615;1260;60421;-46
2024/03/18 05:08:43;;;;;;;8.20;7.10;;;;;;;-147.86;100.00;18625.48;105638;1260;60658;-44
2024/03/18 05:11:10;;;;;;;9.80;7.40;;;;;;;-147.86;100.00;17247.83;105605;1260;73639;-45
2024/03/18 05:13:37;;;;;;;12.60;7.80;;;;;;;-147.86;100.00;15713.57;105637;1260;65418;-48
2024/03/18 05:16:05;;;;;;;7.80;7.00;;;;;;;-147.86;100.00;13992.58;105668;1260;73179;-45
2024/03/18 05:18:31;;;;;;;10.70;7.90;;;;;;;-147.86;100.00;12120.85;105637;1260;61771;-45
2024/03/18 05:20:58;;;;;;;11.40;7.70;;;;;;;-147.86;100.00;10694.25;105612;1257;60402;-46
2024/03/18 05:23:25;;;;;;;11.40;7.90;;;;;;;-147.86;100.00;9360.18;105600;1255;73690;-45
2024/03/18 05:25:55;;;;;;;11.30;8.10;;;;;;;-147.86;100.00;8087.49;105679;1260;65498;-46
2024/03/18 05:28:21;;;;;;;11.00;7.90;;;;;;;-147.86;100.00;6698.09;105626;1260;71637;-46
2024/03/18 05:30:48;;;;;;;11.10;7.50;;;;;;;-147.86;100.00;5652.34;105664;1260;61179;-46
2024/03/18 05:33:15;;;;;;;12.60;7.90;;;;;;;-147.86;100.00;4304.48;105516;1261;60437;-47
2024/03/18 05:35:42;;;;;;;10.90;7.70;;;;;;;-147.86;100.00;2839.67;105603;1258;73773;-50
2024/03/18 05:38:09;;;;;;;10.40;7.80;;;;;;;-147.86;100.00;1429.27;105584;1260;65479;-46
2024/03/18 05:40:36;;;;;;;9.90;8.10;;;;;;;-147.86;100.00;286.22;105377;1260;72444;-51
2024/03/18 05:43:03;;;;;;;10.80;8.20;;;;;;;-147.86;100.00;-893.28;105255;1260;60936;-46
2024/03/18 05:45:30;;;;;;;12.20;8.50;;;;;;;-147.86;100.00;-2095.65;105238;1260;60453;-46
2024/03/18 05:47:57;;;;;;;13.70;8.90;;;;;;;-147.86;100.00;-3654.75;105587;1260;73876;-44
2024/03/18 05:50:25;;;;;;;12.30;9.00;;;;;;;-147.86;100.00;-5188.47;105627;1257;65395;-46
2024/03/18 05:52:52;;;;;;;11.10;8.80;;;;;;;-147.86;100.00;-6694.89;105677;1259;72629;-46
2024/03/18 05:55:19;;;;;;;11.40;8.90;;;;;;;-147.86;100.00;-7965.00;105629;1269;61168;-47
2024/03/18 05:57:46;;;;;;;12.20;8.80;;;;;;;-147.86;100.00;-8947.63;105623;1259;61090;-47
2024/03/18 06:00:13;;;;;;;12.60;9.20;;;;;;;-147.86;100.00;-9653.06;105686;1260;73848;-47
2024/03/18 06:02:42;;;;;;;17.20;9.90;;;;;;;-147.86;100.00;-10413.95;105660;1269;65554;-51
2024/03/18 06:05:10;;;;;;;13.90;9.40;;;;;;;-147.86;100.00;-10765.78;105703;1260;72620;-49
2024/03/18 06:07:37;;;;;;;11.70;9.20;;;;;;;-147.86;100.00;-11085.51;105603;1260;61178;-49
2024/03/18 06:10:05;;;;;;;11.90;9.10;;;;;;;-147.86;100.00;-11501.37;105648;1260;61299;-46
2024/03/18 06:12:32;;;;;;;11.30;8.70;;;;;;;-147.86;100.00;-11732.22;105609;1257;73318;-44
2024/03/18 06:14:59;;;;;;;9.10;7.90;;;;;;;-147.86;100.00;-11512.94;105630;1260;65331;-45
2024/03/18 06:17:26;;;;;;;10.50;8.00;;;;;;;-147.86;100.00;-11653.86;105568;1260;72606;-45
2024/03/18 06:19:58;;;;;;;9.20;7.70;;;;;;;-147.86;100.00;-11937.64;105580;1260;61230;-47
2024/03/18 06:22:26;;;;;;;9.30;7.50;;;;;;;-147.86;100.00;-12515.08;105637;1256;61170;-46
2024/03/18 06:27:39;;;;;;;7.70;6.90;;;;;;;-147.86;100.00;-13173.07;105615;1259;64563;-45
2024/03/18 06:30:07;;;;;;;7.10;6.40;;;;;;;-147.86;100.00;-12249.91;105626;1260;72481;-44
2024/03/18 06:32:35;;;;;;;8.40;7.50;;;;;;;-147.86;100.00;-12651.75;105604;1260;61138;-49
2024/03/18 06:35:04;;;;;;;7.20;6.50;;;;;;;-147.86;100.00;-12591.13;105632;1260;61256;-47
2024/03/18 06:37:35;;;;;;;7.10;6.50;;;;;;;-147.86;100.00;-12078.06;105578;1260;75800;-48
2024/03/18 06:40:08;;;;;;;7.70;6.40;;;;;;;-147.86;100.00;-11300.45;105601;1257;66816;-44
2024/03/18 06:42:36;;;;;;;6.20;5.60;;;;;;;-147.86;100.00;-10613.83;105668;1260;72737;-47
2024/03/18 06:45:03;;;;;;;6.80;6.10;;;;;;;-147.86;100.00;-9836.47;105617;1261;61208;-45
2024/03/18 06:47:34;;;;;;;6.60;5.90;;;;;;;-147.86;100.00;-9866.17;105575;1257;61563;-47
2024/03/18 06:50:01;;;;;;;5.70;5.00;;;;;;;-147.86;100.00;-9590.03;105598;1260;74589;-45
2024/03/18 06:52:29;;;;;;;4.60;4.20;;;;;;;-147.86;100.00;-9353.59;105693;1261;66930;-46
2024/03/18 06:54:57;;;;;;;4.60;4.20;;;;;;;-147.86;100.00;-9286.00;105658;1260;72689;-45
2024/03/18 06:57:27;;;;;;;5.70;5.20;;;;;;;-147.86;100.00;-8952.17;105631;1261;61192;-44
2024/03/18 06:59:54;;;;;;;5.60;4.70;;;;;;;-147.86;100.00;-8658.92;105639;1258;61352;-49
2024/03/18 07:02:21;;;;;;;4.90;4.50;;;;;;;-147.86;100.00;-8815.46;105583;1259;74567;-46
2024/03/18 07:04:49;;;;;;;4.90;4.50;;;;;;;-147.86;100.00;-9301.10;105614;1261;65995;-45
2024/03/18 07:07:16;;;;;;;4.00;3.60;;;;;;;-147.86;100.00;-9416.57;105628;1260;73839;-47
2024/03/18 07:09:43;;;;;;;4.30;4.00;;;;;;;-147.86;100.00;-8809.62;105588;1258;61373;-47
2024/03/18 07:12:10;;;;;;;4.50;4.10;;;;;;;-147.86;100.00;-8265.94;105588;1257;61464;-45
2024/03/18 07:14:37;;;;;;;4.50;4.00;;;;;;;-147.86;100.00;-7683.96;105620;1260;76191;-47
2024/03/18 07:17:04;;;;;;;4.70;4.30;;;;;;;-147.86;100.00;-7295.14;105668;1258;67055;-46
2024/03/18 07:19:31;;;;;;;4.50;4.00;;;;;;;-147.86;100.00;-7325.32;105655;1260;72602;-47
2024/03/18 07:22:00;;;;;;;5.40;4.00;;;;;;;-147.86;100.00;-8878.86;105611;1259;61181;-45
2024/03/18 07:24:28;;;;;;;4.50;4.20;;;;;;;-147.86;100.00;-10796.66;105668;1258;61344;-46
2024/03/18 07:26:55;;;;;;;5.00;4.60;;;;;;;-147.86;100.00;-11458.90;105643;1259;76019;-45
2024/03/18 07:29:22;;;;;;;4.40;4.00;;;;;;;-147.86;100.00;-12525.93;105612;1260;65235;-46
2024/03/18 07:31:56;;;;;;;4.30;4.00;;;;;;;-147.86;100.00;-12721.22;105636;1260;72837;-44
2024/03/18 07:34:24;;;;;;;4.20;3.90;;;;;;;-147.86;100.00;-12950.44;105648;1260;61512;-45
2024/03/18 07:36:51;;;;;;;3.80;3.50;;;;;;;-147.86;100.00;-12570.29;105636;1261;61330;-46
2024/03/18 07:39:19;;;;;;;4.30;3.90;;;;;;;-147.86;100.00;-12496.97;105646;1257;75814;-46
2024/03/18 07:41:46;;;;;;;4.10;3.80;;;;;;;-147.86;100.00;-12892.61;105692;1260;64910;-46
2024/03/18 07:44:13;;;;;;;4.60;4.20;;;;;;;-147.86;100.00;-13258.11;105633;1257;72872;-47
2024/03/18 07:46:40;;;;;;;4.20;3.90;;;;;;;-147.86;100.00;-13409.02;105622;1257;61574;-46
2024/03/18 07:49:07;;;;;;;3.60;3.30;;;;;;;-147.86;100.00;-13416.73;105613;1257;61469;-45
2024/03/18 07:51:34;;;;;;;4.80;4.50;;;;;;;-147.86;100.00;-13072.88;105614;1260;76044;-46
2024/03/18 07:54:01;;;;;;;4.90;4.40;;;;;;;-147.86;100.00;-12532.11;105638;1257;66042;-47
2024/03/18 07:56:28;;;;;;;4.50;4.10;;;;;;;-147.86;100.00;-11365.08;105678;1258;74187;-46
2024/03/18 07:58:55;;;;;;;5.10;4.60;;;;;;;-147.86;100.00;-10244.01;105636;1260;61274;-48
2024/03/18 08:01:24;;;;;;;4.60;4.20;;;;;;;-147.86;100.00;-9101.40;105611;1257;61269;-47
2024/03/18 08:03:54;;;;;;;4.70;4.30;;;;;;;-147.86;100.00;-7916.28;105633;1260;75806;-47
2024/03/18 08:06:21;;;;;;;4.80;4.40;;;;;;;-147.86;100.00;-6155.95;105646;1258;66726;-44
2024/03/18 08:08:48;;;;;;;5.20;4.60;;;;;;;-147.86;100.00;-5351.29;105633;1259;72756;-46
2024/03/18 08:11:15;;;;;;;6.10;4.70;;;;;;;-147.86;100.00;-5080.19;105646;1260;62992;-46
2024/03/18 08:13:42;;;;;;;4.40;4.10;;;;;;;-147.86;100.00;-4657.07;105653;1258;62118;-48
2024/03/18 08:16:09;;;;;;;4.80;4.40;;;;;;;-147.86;100.00;-3782.43;105638;1260;76063;-46
2024/03/18 08:18:36;;;;;;;4.90;4.40;;;;;;;-147.86;100.00;-2533.77;105651;1261;66612;-46
2024/03/18 08:21:04;;;;;;;6.80;4.80;;;;;;;-147.86;100.00;-1487.18;105624;1256;73917;-46
2024/03/18 08:23:31;;;;;;;4.50;4.10;;;;;;;-147.86;100.00;-305.92;105618;1257;61595;-47
2024/03/18 08:25:58;;;;;;;5.10;4.60;;;;;;;-147.86;100.00;756.00;105629;1256;61775;-47
2024/03/18 08:28:25;;;;;;;5.10;4.50;;;;;;;-147.86;100.00;1731.03;105609;1260;75951;-44
2024/03/18 08:30:52;;;;;;;4.80;4.40;;;;;;;-147.86;100.00;1887.17;105602;1258;66990;-45
2024/03/18 08:33:19;;;;;;;4.60;4.30;;;;;;;-147.86;100.00;2062.30;105598;1258;73863;-47
2024/03/18 08:35:59;;;;;;;5.10;4.70;;;;;;;-147.86;100.00;2753.60;105638;1257;61164;-47
2024/03/18 08:38:25;;;;;;;5.30;4.90;;;;;;;-147.86;100.00;2242.49;105669;1258;61446;-47
2024/03/18 08:40:54;;;;;;;5.90;5.30;;;;;;;-147.86;100.00;1841.06;105654;1259;75925;-46
2024/03/18 08:43:21;;;;;;;6.10;5.60;;;;;;;-147.86;100.00;1801.93;105647;1261;64953;-46
2024/03/18 08:45:52;;;;;;;6.20;5.60;;;;;;;-147.86;100.00;1607.05;105627;1258;73988;-48
2024/03/18 08:48:20;;;;;;;5.40;4.90;;;;;;;-147.86;100.00;2000.69;105642;1257;63341;-47
2024/03/18 08:50:47;;;;;;;6.20;5.60;;;;;;;-147.86;100.00;1756.28;105658;1257;61541;-47
2024/03/18 08:53:15;;;;;;;7.50;5.30;;;;;;;-147.86;100.00;-794.93;105628;1258;75901;-46
2024/03/18 08:55:46;;;;;;;6.50;5.90;;;;;;;-147.86;100.00;-653.24;105650;1261;66118;-50
2024/03/18 08:58:13;;;;;;;6.70;6.00;;;;;;;-147.86;100.00;2407.97;105439;1258;72778;-48
2024/03/18 09:00:42;;;;;;;9.70;6.20;;;;;;;-147.86;100.00;3951.65;105384;1257;61173;-47
2024/03/18 09:03:09;;;;;;;7.40;6.20;;;;;;;-147.86;100.00;4190.84;105548;1257;61596;-49
2024/03/18 09:05:37;;;;;;;7.70;6.50;;;;;;;-147.86;100.00;4758.45;105636;1257;74877;-51
2024/03/18 09:08:04;;;;;;;7.70;6.60;;;;;;;-147.86;100.00;5173.35;105671;1260;63871;-48
2024/03/18 09:10:31;;;;;;;9.00;7.20;;;;;;;-147.86;100.00;4924.40;105589;1258;73901;-47
2024/03/18 09:12:58;;;;;;;9.00;7.00;;;;;;;-147.86;100.00;5034.53;105573;1260;61141;-47
2024/03/18 09:15:26;;;;;;;10.70;7.60;;;;;;;-147.86;100.00;5331.95;105593;1257;61237;-45
2024/03/18 09:17:53;;;;;;;9.90;7.70;;;;;;;-147.86;100.00;5352.90;105598;1257;73633;-50
2024/03/18 09:20:22;;;;;;;8.60;7.10;;;;;;;-147.86;100.00;5372.67;105652;1257;64623;-48
2024/03/18 09:22:50;;;;;;;7.40;6.60;;;;;;;-147.86;100.00;5407.96;105624;1258;73842;-48
2024/03/18 09:25:18;;;;;;;9.40;7.30;;;;;;;-147.86;100.00;5717.83;105642;1257;61391;-45
2024/03/18 09:27:45;;;;;;;14.90;8.10;;;;;;;-147.86;100.00;5468.46;105608;1257;61406;-46
2024/03/18 09:30:12;;;;;;;10.40;8.20;;;;;;;-147.86;100.00;5292.79;105590;1260;74672;-48
2024/03/18 09:32:39;;;;;;;11.70;8.10;;;;;;;-147.86;100.00;4664.63;105612;1257;66018;-47
2024/03/18 09:35:07;;;;;;;12.70;9.60;;;;;;;-147.86;100.00;3733.81;105634;1258;73821;-47
2024/03/18 09:37:35;;;;;;;15.30;11.30;;;;;;;-147.86;100.00;2828.80;105613;1260;61228;-46
2024/03/18 09:40:02;;;;;;;21.90;13.30;;;;;;;-147.86;100.00;2075.09;105620;1257;61461;-46
2024/03/18 09:42:30;;;;;;;20.30;12.60;;;;;;;-147.86;100.00;1480.38;105570;1257;74935;-45
2024/03/18 09:45:01;;;;;;;25.50;15.70;;;;;;;-147.86;100.00;775.75;105614;1257;66739;-47
2024/03/18 09:47:31;;;;;;;29.80;17.40;;;;;;;-147.86;100.00;846.63;105845;1254;74430;-47
2024/03/18 09:50:18;;;;;;;37.60;20.50;;;;;;;-147.86;100.00;1749.63;105881;1256;61631;-47
2024/03/18 09:52:46;;;;;;;35.40;21.70;;;;;;;-147.86;100.00;3202.00;105930;1254;61692;-47
2024/03/18 09:55:16;;;;;;;49.80;25.50;;;;;;;-147.86;100.00;3727.60;105934;1253;75924;-47
2024/03/18 09:57:43;;;;;;;43.50;26.90;;;;;;;-147.86;100.00;3914.44;105914;1254;66678;-49
2024/03/18 10:00:11;;;;;;;43.50;25.20;;;;;;;-147.86;100.00;4135.41;105951;1254;72754;-47
2024/03/18 10:02:38;;;;;;;49.30;25.20;;;;;;;-147.86;100.00;4200.93;105920;1254;61573;-48
2024/03/18 10:05:11;;;;;;;42.90;23.60;;;;;;;-147.86;100.00;4024.15;105917;1254;61448;-47
2024/03/18 10:07:40;;;;;;;31.30;19.00;;;;;;;-147.86;100.00;3891.96;105873;1254;76078;-46
2024/03/18 10:10:17;;;;;;;31.30;19.20;;;;;;;-147.86;100.00;3772.56;105955;1253;65680;-44
2024/03/18 10:12:44;;;;;;;24.50;13.50;;;;;;;-147.86;100.00;4590.56;105878;1254;70596;-49
2024/03/18 10:15:12;;;;;;;16.60;10.20;;;;;;;-147.86;100.00;5115.18;105924;1254;63148;-45
2024/03/18 10:17:41;;;;;;;15.80;10.90;;;;;;;-147.86;100.00;5571.23;105901;1254;61666;-46
2024/03/18 10:20:20;;;;;;;14.80;10.30;;;;;;;-147.86;100.00;6113.05;105917;1254;73588;-50
2024/03/18 10:22:48;;;;;;;15.80;11.20;;;;;;;-147.86;100.00;8874.53;105894;1254;66861;-47
2024/03/18 10:25:16;;;;;;;17.60;11.00;;;;;;;-147.86;100.00;10050.79;105927;1254;73839;-45
2024/03/18 10:27:44;;;;;;;15.00;10.90;;;;;;;-147.86;100.00;10180.09;105907;1254;62647;-48
2024/03/18 10:30:13;;;;;;;17.10;11.20;;;;;;;-147.86;100.00;10472.86;105873;1254;61253;-44
2024/03/18 10:32:41;;;;;;;16.10;11.00;;;;;;;-147.86;100.00;11220.05;105900;1252;75032;-47
2024/03/18 10:35:25;;;;;;;21.00;12.50;;;;;;;-147.86;100.00;9291.65;105915;1253;66846;-46
2024/03/18 10:38:03;;;;;;;22.10;12.00;;;;;;;-147.86;100.00;-624.99;105887;1254;71905;-47
2024/03/18 10:40:38;;;;;;;22.80;13.70;;;;;;;-147.86;100.00;-12501.41;105910;1254;61324;-49
2024/03/18 10:43:07;;;;;;;23.70;14.40;;;;;;;-147.86;100.00;-16392.40;105939;1254;61614;-48
2024/03/18 10:45:47;;;;;;;22.30;14.10;;;;;;;-147.86;100.00;-17053.35;105960;1254;75972;-46
2024/03/18 10:48:17;;;;;;;22.90;13.30;;;;;;;-147.86;100.00;-14926.85;105949;1254;66404;-45
2024/03/18 10:50:45;;;;;;;26.10;13.80;;;;;;;-147.86;100.00;-13380.61;105913;1256;73790;-48
2024/03/18 10:53:21;;;;;;;23.80;13.50;;;;;;;-147.86;100.00;-5646.59;105931;1257;61553;-45
2024/03/18 10:55:49;;;;;;;21.50;13.50;;;;;;;-147.86;100.00;2382.99;105917;1254;61452;-48
2024/03/18 10:58:16;;;;;;;26.00;14.10;;;;;;;-147.86;100.00;7346.44;105873;1256;76115;-47
2024/03/18 11:00:44;;;;;;;26.20;14.70;;;;;;;-147.86;100.00;10076.42;105902;1252;66100;-47
2024/03/18 11:03:15;;;;;;;19.80;12.10;;;;;;;-147.86;100.00;11355.97;105953;1254;74253;-46
2024/03/18 11:05:49;;;;;;;21.60;12.10;;;;;;;-147.86;100.00;12287.85;105917;1256;61267;-49
2024/03/18 11:08:25;;;;;;;18.30;11.70;;;;;;;-147.86;100.00;13301.56;105965;1252;61458;-50
2024/03/18 11:10:57;;;;;;;20.40;11.20;;;;;;;-147.86;100.00;13608.56;105921;1253;75886;-47